Time;durP1;ratioP1;P1;durP2;ratioP2;P2;SDS_P1;SDS_P2;PMS_P1;PMS_P2;Temp;Humidity;BMP_temperature;BMP_pressure;BME280_temperature;BME280_humidity;BME280_pressure;Samples;Min_cycle;Max_cycle;Signal;HPM_P1;HPM_P2
2022/10/09 00:01:27;;;;;;;1.62;1.52;;;;;;;13.77;74.79;99742.44;4245682;33;34568;-75
2022/10/09 00:03:56;;;;;;;1.52;1.35;;;;;;;13.48;76.63;99736.81;4246776;33;32686;-75
2022/10/09 00:06:27;;;;;;;1.10;0.95;;;;;;;12.66;80.38;99735.38;4245640;33;33904;-76
2022/10/09 00:08:57;;;;;;;2.53;2.22;;;;;;;12.81;80.60;99743.00;4246739;33;36001;-75
2022/10/09 00:11:26;;;;;;;0.30;0.30;;;;;;;13.17;77.77;99735.53;4222232;33;33009;-71
2022/10/09 00:13:54;;;;;;;1.90;0.80;;;;;;;12.79;80.57;99736.06;4246473;33;33845;-75
2022/10/09 00:16:23;;;;;;;1.05;1.05;;;;;;;13.32;77.93;99730.97;4246555;33;33971;-75
2022/10/09 00:18:52;;;;;;;0.57;0.57;;;;;;;13.41;76.98;99734.31;4246716;33;35856;-70
2022/10/09 00:21:29;;;;;;;0.77;0.65;;;;;;;12.86;79.88;99732.47;4233844;33;34804;-75
2022/10/09 00:23:59;;;;;;;0.40;0.40;;;;;;;12.94;80.69;99721.94;4233915;33;34378;-75
2022/10/09 00:26:27;;;;;;;1.27;1.00;;;;;;;12.80;81.42;99729.97;4246739;33;33978;-76
2022/10/09 00:28:55;;;;;;;2.92;2.72;;;;;;;13.17;79.98;99724.22;4246400;33;35113;-71
2022/10/09 00:31:23;;;;;;;1.08;1.05;;;;;;;13.20;80.40;99727.63;4246443;33;34087;-71
2022/10/09 00:33:51;;;;;;;1.23;1.23;;;;;;;13.20;80.04;99726.75;4233800;33;34258;-70
2022/10/09 00:36:22;;;;;;;2.22;1.33;;;;;;;13.28;80.01;99722.28;4246231;33;33895;-71
2022/10/09 00:38:50;;;;;;;5.70;3.17;;;;;;;13.14;80.59;99725.09;4246536;33;35230;-75
2022/10/09 00:41:25;;;;;;;2.08;1.42;;;;;;;13.20;80.73;99722.41;4246191;33;34552;-72
2022/10/09 00:43:56;;;;;;;1.35;1.25;;;;;;;13.41;79.60;99721.25;4246271;33;33603;-76
2022/10/09 00:46:32;;;;;;;0.47;0.47;;;;;;;13.34;80.35;99714.38;4246193;33;34673;-72
2022/10/09 00:49:15;;;;;;;1.05;1.05;;;;;;;13.29;80.96;99713.56;4246489;33;35074;-75
2022/10/09 00:51:45;;;;;;;1.33;1.23;;;;;;;13.42;80.96;99707.25;4246346;33;35292;-71
2022/10/09 00:54:15;;;;;;;1.45;1.20;;;;;;;13.55;80.66;99715.75;4235293;33;33469;-71
2022/10/09 00:56:43;;;;;;;1.73;1.62;;;;;;;13.50;81.32;99708.88;4235382;33;33825;-74
2022/10/09 00:59:11;;;;;;;2.97;1.98;;;;;;;13.57;81.31;99710.50;4248171;33;35060;-74
2022/10/09 01:01:40;;;;;;;1.58;1.35;;;;;;;13.49;81.70;99708.03;4235413;33;34479;-72
2022/10/09 01:04:08;;;;;;;2.53;2.33;;;;;;;13.56;82.14;99693.09;4248122;33;33653;-71
2022/10/09 01:06:48;;;;;;;1.90;1.52;;;;;;;13.78;81.48;99702.28;4248050;33;34054;-71
2022/10/09 01:09:29;;;;;;;3.45;3.17;;;;;;;13.96;80.81;99697.59;4235314;33;33476;-71
2022/10/09 01:12:24;;;;;;;2.45;1.92;;;;;;;14.12;80.28;99693.81;4235342;33;34590;-72
2022/10/09 01:15:03;;;;;;;1.58;1.48;;;;;;;14.25;80.54;99693.56;4248003;33;33522;-71
2022/10/09 01:17:50;;;;;;;3.85;1.73;;;;;;;14.31;80.62;99696.94;4235381;33;33800;-73
2022/10/09 01:20:43;;;;;;;1.02;1.02;;;;;;;14.65;77.53;99695.34;4235435;33;34925;-71
2022/10/09 01:23:14;;;;;;;1.98;1.80;;;;;;;14.65;77.50;99698.88;4235344;33;34410;-71
2022/10/09 01:25:48;;;;;;;0.95;0.95;;;;;;;14.81;75.19;99698.50;4248024;33;33518;-72
2022/10/09 01:28:18;;;;;;;3.75;2.70;;;;;;;14.66;75.95;99694.47;4247947;33;34848;-76
2022/10/09 01:30:46;;;;;;;1.05;0.93;;;;;;;14.57;76.69;99703.37;4235358;33;35169;-72
2022/10/09 01:33:15;;;;;;;2.28;2.08;;;;;;;14.37;76.95;99699.41;4246998;33;35185;-72
2022/10/09 01:35:43;;;;;;;2.37;1.70;;;;;;;14.22;77.39;99690.13;4247126;33;33402;-71
2022/10/09 01:38:12;;;;;;;1.73;1.48;;;;;;;14.39;76.56;99695.00;4247827;33;34642;-71
2022/10/09 01:40:40;;;;;;;3.03;1.98;;;;;;;14.17;77.08;99699.81;4248180;33;35919;-75
2022/10/09 01:43:08;;;;;;;5.35;4.10;;;;;;;14.07;77.98;99710.50;4247857;33;34446;-75
2022/10/09 01:45:41;;;;;;;2.87;2.60;;;;;;;14.34;78.07;99698.59;4247923;33;34176;-76
2022/10/09 01:48:14;;;;;;;1.67;1.58;;;;;;;14.43;78.05;99698.41;4247958;33;34830;-72
2022/10/09 01:50:43;;;;;;;1.45;1.35;;;;;;;14.19;79.37;99708.50;4247885;33;34802;-75
2022/10/09 01:53:16;;;;;;;4.80;2.72;;;;;;;14.68;77.54;99697.91;4248061;33;34461;-72
2022/10/09 01:55:56;;;;;;;2.12;1.92;;;;;;;14.84;76.75;99701.94;4247874;33;33632;-73
2022/10/09 01:58:33;;;;;;;3.33;2.40;;;;;;;14.60;76.85;99712.06;4247943;33;34061;-76
2022/10/09 02:01:03;;;;;;;0.77;0.77;;;;;;;14.21;78.88;99706.72;4235226;33;35173;-74
2022/10/09 02:03:33;;;;;;;2.67;2.28;;;;;;;14.30;78.90;99704.81;4247645;33;34339;-72
2022/10/09 02:06:03;;;;;;;2.58;1.33;;;;;;;14.66;76.36;99710.19;4235150;33;33297;-72
2022/10/09 02:08:32;;;;;;;1.55;1.37;;;;;;;14.47;76.93;99713.19;4248089;33;34021;-73
2022/10/09 02:11:01;;;;;;;2.37;1.37;;;;;;;14.94;74.68;99708.69;4235120;33;35081;-72
2022/10/09 02:13:31;;;;;;;2.97;2.00;;;;;;;14.74;74.43;99722.25;4234897;33;35081;-71
2022/10/09 02:16:19;;;;;;;7.32;3.33;;;;;;;14.68;74.74;99725.03;4246524;33;33525;-75
2022/10/09 02:18:59;;;;;;;2.58;1.98;;;;;;;14.79;74.22;99716.91;4247607;33;34666;-73
2022/10/09 02:21:48;;;;;;;3.42;3.15;;;;;;;14.47;76.45;99722.78;4235135;33;35117;-76
2022/10/09 02:24:23;;;;;;;1.80;1.58;;;;;;;14.69;77.18;99731.12;4247756;33;34087;-75
2022/10/09 02:26:52;;;;;;;2.37;2.03;;;;;;;15.16;78.00;99731.81;4246654;33;32704;-74
2022/10/09 02:29:20;;;;;;;2.50;2.30;;;;;;;15.03;80.34;99733.00;4235182;33;33515;-77
2022/10/09 02:31:48;;;;;;;4.35;3.08;;;;;;;15.35;79.88;99722.62;4247564;33;36031;-72
2022/10/09 02:34:18;;;;;;;2.97;2.72;;;;;;;15.14;81.52;99729.22;4234842;33;34303;-75
2022/10/09 02:36:46;;;;;;;1.60;1.20;;;;;;;15.37;80.77;99730.44;4247566;33;34318;-76
2022/10/09 02:39:14;;;;;;;2.70;2.50;;;;;;;15.26;82.27;99735.06;4247597;33;34577;-71
2022/10/09 02:41:42;;;;;;;3.67;1.90;;;;;;;15.54;80.92;99736.13;4247419;33;35123;-72
2022/10/09 02:44:10;;;;;;;2.22;2.03;;;;;;;15.70;80.14;99736.59;4247474;33;34525;-76
2022/10/09 02:46:38;;;;;;;1.77;1.55;;;;;;;15.59;80.89;99743.91;4247521;33;33661;-71
2022/10/09 02:49:06;;;;;;;2.15;1.95;;;;;;;15.56;80.74;99749.22;4247561;33;34048;-76
2022/10/09 02:51:34;;;;;;;4.20;3.40;;;;;;;15.30;81.64;99753.34;4247423;33;36012;-71
2022/10/09 02:54:03;;;;;;;2.03;1.90;;;;;;;15.42;82.14;99748.69;4247724;33;35228;-72
2022/10/09 02:56:31;;;;;;;3.45;2.50;;;;;;;15.72;79.77;99755.84;4247431;33;32960;-71
2022/10/09 02:59:05;;;;;;;2.60;2.00;;;;;;;15.29;81.79;99758.63;4247510;33;34800;-76
2022/10/09 03:01:34;;;;;;;5.93;2.42;;;;;;;15.54;80.92;99758.91;4247379;33;35733;-71
2022/10/09 03:04:02;;;;;;;3.33;3.08;;;;;;;15.89;78.35;99767.69;4247484;33;34593;-76
2022/10/09 03:06:30;;;;;;;6.62;5.00;;;;;;;15.64;79.69;99768.28;4247462;33;33505;-71
2022/10/09 03:08:58;;;;;;;2.58;2.03;;;;;;;15.92;78.03;99765.00;4247262;33;33866;-71
2022/10/09 03:11:26;;;;;;;5.00;2.28;;;;;;;15.84;78.38;99767.78;4247335;33;35188;-76
2022/10/09 03:13:54;;;;;;;1.95;1.85;;;;;;;15.43;80.21;99771.44;4247131;33;34421;-76
2022/10/09 03:16:24;;;;;;;2.50;2.15;;;;;;;15.57;80.38;99769.31;4246580;33;33639;-76
2022/10/09 03:18:52;;;;;;;2.25;1.98;;;;;;;15.61;80.03;99767.50;4247248;33;33900;-76
2022/10/09 03:21:25;;;;;;;3.60;2.40;;;;;;;15.74;79.03;99766.25;4247354;33;35959;-71
2022/10/09 03:23:53;;;;;;;2.70;2.50;;;;;;;15.39;81.41;99767.13;4247236;33;35222;-75
2022/10/09 03:26:23;;;;;;;2.35;2.15;;;;;;;15.07;82.84;99760.84;4234658;33;34150;-75
2022/10/09 03:28:52;;;;;;;4.03;2.87;;;;;;;15.17;83.17;99760.62;4246035;33;33974;-70
2022/10/09 03:31:22;;;;;;;4.47;2.62;;;;;;;15.30;83.04;99757.72;4247159;33;36012;-71
2022/10/09 03:34:11;;;;;;;2.62;2.40;;;;;;;15.52;82.12;99761.56;4236882;33;35336;-74
2022/10/09 03:36:38;;;;;;;3.47;2.55;;;;;;;15.49;81.86;99766.88;4247142;33;34376;-71
2022/10/09 03:39:07;;;;;;;2.25;2.05;;;;;;;15.43;82.97;99774.06;4247109;33;33902;-71
2022/10/09 03:41:35;;;;;;;2.42;1.75;;;;;;;15.42;83.38;99765.28;4247027;33;36084;-71
2022/10/09 03:44:03;;;;;;;2.72;2.47;;;;;;;15.64;82.08;99765.66;4247020;33;34457;-72
2022/10/09 03:46:31;;;;;;;1.92;1.83;;;;;;;15.61;82.29;99765.72;4247051;33;34284;-71
2022/10/09 03:48:59;;;;;;;3.03;2.62;;;;;;;15.58;82.56;99784.16;4247227;33;34837;-71
2022/10/09 03:51:27;;;;;;;2.35;2.15;;;;;;;15.67;82.13;99785.69;4246851;33;35028;-77
2022/10/09 03:53:54;;;;;;;2.33;2.12;;;;;;;15.69;82.41;99786.56;4246843;33;35300;-72
2022/10/09 03:56:22;;;;;;;3.10;2.85;;;;;;;15.31;85.29;99796.19;4234204;33;33461;-72
2022/10/09 03:58:50;;;;;;;3.22;2.08;;;;;;;15.51;84.09;99793.06;4246915;33;33834;-70
2022/10/09 04:01:18;;;;;;;3.53;2.47;;;;;;;15.37;85.14;99793.44;4242593;33;35093;-70
2022/10/09 04:03:47;;;;;;;3.37;2.70;;;;;;;15.79;82.80;99787.19;4246245;33;34691;-74
2022/10/09 04:06:15;;;;;;;2.75;2.55;;;;;;;15.72;83.23;99795.22;4246176;33;34134;-73
2022/10/09 04:08:42;;;;;;;2.90;2.05;;;;;;;15.69;83.58;99795.28;4246082;33;33941;-74
2022/10/09 04:11:11;;;;;;;2.22;2.00;;;;;;;15.68;83.49;99785.66;4246269;33;35104;-74
2022/10/09 04:13:38;;;;;;;3.33;3.03;;;;;;;15.66;83.17;99786.63;4246075;33;35092;-71
2022/10/09 04:16:11;;;;;;;4.32;3.78;;;;;;;15.80;82.50;99786.31;4246218;33;33341;-72
2022/10/09 04:18:43;;;;;;;2.85;1.95;;;;;;;15.63;83.40;99778.81;4246106;33;33815;-70
2022/10/09 04:21:11;;;;;;;3.28;2.92;;;;;;;15.86;82.27;99801.91;4246005;33;35890;-72
2022/10/09 04:23:40;;;;;;;3.42;3.12;;;;;;;15.76;82.75;99796.03;4246050;33;34334;-73
2022/10/09 04:26:09;;;;;;;1.17;1.08;;;;;;;16.00;80.67;99776.16;4246008;33;33309;-75
2022/10/09 04:28:38;;;;;;;1.62;1.52;;;;;;;15.88;80.95;99787.84;4247956;33;33931;-70
2022/10/09 04:31:06;;;;;;;3.67;3.37;;;;;;;15.88;80.78;99800.09;4247810;33;35002;-74
2022/10/09 04:33:34;;;;;;;2.85;1.83;;;;;;;16.01;80.47;99806.78;4247835;33;35193;-71
2022/10/09 04:36:02;;;;;;;13.75;3.47;;;;;;;15.83;81.43;99817.72;4235030;33;33462;-69
2022/10/09 04:38:30;;;;;;;2.55;2.08;;;;;;;15.55;82.78;99813.13;4242302;33;33946;-68
2022/10/09 04:41:02;;;;;;;2.47;2.22;;;;;;;15.85;81.70;99808.94;4235641;33;34914;-74
2022/10/09 04:43:31;;;;;;;2.58;1.48;;;;;;;15.87;81.52;99822.03;4247882;33;34488;-70
2022/10/09 04:46:03;;;;;;;3.78;2.28;;;;;;;15.98;81.02;99833.09;4234961;33;34184;-75
2022/10/09 04:48:39;;;;;;;2.80;2.12;;;;;;;15.60;82.85;99832.25;4247652;33;33501;-77
2022/10/09 04:51:07;;;;;;;4.35;1.85;;;;;;;15.44;83.67;99852.75;4237000;33;35208;-68
2022/10/09 04:53:36;;;;;;;3.72;2.87;;;;;;;15.36;85.03;99850.28;4247788;33;35878;-69
2022/10/09 04:56:07;;;;;;;6.47;4.35;;;;;;;15.19;86.56;99852.41;4247683;33;33460;-67
2022/10/09 04:58:35;;;;;;;2.95;2.72;;;;;;;15.09;86.71;99851.75;4244183;33;33531;-67
2022/10/09 05:01:11;;;;;;;3.35;3.05;;;;;;;14.92;88.49;99853.84;4247544;33;35922;-71
2022/10/09 05:03:39;;;;;;;3.37;2.67;;;;;;;15.14;86.58;99849.91;4247864;33;34522;-72
2022/10/09 05:06:09;;;;;;;2.10;1.90;;;;;;;15.24;86.47;99845.28;4247581;33;33331;-69
2022/10/09 05:08:37;;;;;;;3.53;2.65;;;;;;;15.46;84.87;99840.44;4247630;33;34043;-68
2022/10/09 05:11:08;;;;;;;3.15;2.58;;;;;;;15.50;84.28;99830.75;4247641;33;35022;-69
2022/10/09 05:13:42;;;;;;;4.40;4.00;;;;;;;15.52;83.96;99844.69;4247676;33;35172;-70
2022/10/09 05:16:12;;;;;;;4.47;3.05;;;;;;;15.57;83.57;99844.59;4247834;33;33802;-69
2022/10/09 05:18:46;;;;;;;1.90;1.50;;;;;;;15.25;85.03;99838.31;4247497;33;34088;-70
2022/10/09 05:21:15;;;;;;;2.72;2.08;;;;;;;15.40;85.01;99851.06;4247662;33;35229;-67
2022/10/09 05:23:43;;;;;;;3.95;2.97;;;;;;;15.51;84.40;99854.34;4242042;33;35194;-68
2022/10/09 05:26:14;;;;;;;3.90;3.53;;;;;;;15.78;82.75;99862.50;4247496;33;34409;-68
2022/10/09 05:28:42;;;;;;;6.90;3.33;;;;;;;15.65;82.85;99867.16;4247479;33;33051;-67
2022/10/09 05:31:17;;;;;;;4.03;2.20;;;;;;;15.78;82.54;99864.28;4247557;33;35627;-67
2022/10/09 05:33:46;;;;;;;3.95;2.60;;;;;;;15.78;82.65;99869.53;4247472;33;35230;-68
2022/10/09 05:36:15;;;;;;;3.78;2.65;;;;;;;15.67;82.79;99865.34;4247482;33;33479;-68
2022/10/09 05:38:43;;;;;;;3.83;2.30;;;;;;;15.90;81.79;99869.19;4246850;33;34915;-75
2022/10/09 05:41:14;;;;;;;4.32;3.30;;;;;;;15.88;81.14;99873.63;4247366;33;35940;-70
2022/10/09 05:43:45;;;;;;;1.27;1.17;;;;;;;15.83;81.81;99875.50;4242184;33;34567;-75
2022/10/09 05:46:23;;;;;;;2.17;2.08;;;;;;;15.77;81.64;99867.78;4234815;33;33558;-75
2022/10/09 05:49:06;;;;;;;1.67;1.58;;;;;;;15.96;81.14;99876.09;4247380;33;33900;-70
2022/10/09 05:51:36;;;;;;;3.22;2.97;;;;;;;15.88;81.59;99873.63;4247387;33;35894;-74
2022/10/09 05:54:05;;;;;;;5.78;3.53;;;;;;;15.87;81.02;99878.03;4247192;33;34726;-74
2022/10/09 05:56:35;;;;;;;3.70;3.33;;;;;;;15.59;81.75;99883.03;4247480;33;33673;-78
2022/10/09 05:59:09;;;;;;;9.20;2.35;;;;;;;15.69;82.38;99889.78;4247733;33;34003;-79
2022/10/09 06:01:40;;;;;;;1.52;1.33;;;;;;;16.18;80.61;99886.91;4247716;33;34921;-79
2022/10/09 06:04:13;;;;;;;2.08;1.87;;;;;;;16.04;79.95;99898.66;4246710;33;34631;-80
2022/10/09 06:06:42;;;;;;;2.70;2.50;;;;;;;16.29;78.71;99890.16;4233757;33;34435;-75
2022/10/09 06:09:10;;;;;;;3.08;1.95;;;;;;;16.17;79.10;99887.84;4235037;33;33954;-83
2022/10/09 06:11:39;;;;;;;2.83;2.60;;;;;;;16.19;78.67;99888.66;4235015;33;35767;-72
2022/10/09 06:14:09;;;;;;;3.17;2.58;;;;;;;15.82;80.72;99900.06;4246333;33;34224;-80
2022/10/09 06:16:40;;;;;;;2.20;2.00;;;;;;;16.17;79.22;99907.09;4223618;33;33661;-80
2022/10/09 06:19:10;;;;;;;1.98;1.85;;;;;;;16.17;78.03;99908.84;4235021;33;33859;-76
2022/10/09 06:21:39;;;;;;;2.85;2.33;;;;;;;16.08;78.97;99917.81;4234924;33;34222;-81
2022/10/09 06:24:07;;;;;;;3.20;2.92;;;;;;;16.14;78.09;99919.44;4247834;33;35304;-69
2022/10/09 06:26:35;;;;;;;12.20;4.18;;;;;;;16.43;77.18;99923.94;4247542;33;33692;-70
2022/10/09 06:29:03;;;;;;;4.20;3.00;;;;;;;16.52;77.24;99917.59;4247837;33;33822;-81
2022/10/09 06:31:32;;;;;;;3.37;1.62;;;;;;;16.48;77.66;99922.06;4247573;33;35063;-70
2022/10/09 06:34:02;;;;;;;2.95;2.70;;;;;;;16.58;78.01;99925.34;4247514;33;35167;-79
2022/10/09 06:36:33;;;;;;;2.33;1.55;;;;;;;16.90;76.48;99928.91;4235194;33;33747;-81
2022/10/09 06:39:04;;;;;;;3.37;2.47;;;;;;;17.12;74.56;99926.53;4247404;33;33950;-75
2022/10/09 06:41:33;;;;;;;3.33;3.03;;;;;;;17.10;75.17;99929.22;4234899;33;35960;-84
2022/10/09 06:44:11;;;;;;;2.55;2.17;;;;;;;17.01;75.85;99929.47;4247804;33;35155;-75
2022/10/09 06:46:44;;;;;;;3.58;2.35;;;;;;;17.19;74.68;99936.00;4247568;33;33705;-80
2022/10/09 06:49:12;;;;;;;9.90;4.65;;;;;;;17.28;74.49;99934.84;4247349;33;33948;-75
2022/10/09 06:51:40;;;;;;;3.95;3.03;;;;;;;17.35;73.55;99941.69;4233884;33;34929;-77
2022/10/09 06:54:13;;;;;;;2.35;2.20;;;;;;;17.00;75.19;99935.66;4234796;33;35168;-83
2022/10/09 06:56:41;;;;;;;3.50;2.95;;;;;;;17.05;74.83;99941.66;4247387;33;33646;-79
2022/10/09 06:59:10;;;;;;;1.75;1.65;;;;;;;17.18;73.50;99940.37;4234747;33;33918;-79
2022/10/09 07:01:38;;;;;;;3.67;2.75;;;;;;;16.80;75.09;99944.91;4234669;33;35236;-78
2022/10/09 07:04:09;;;;;;;2.22;1.85;;;;;;;17.09;74.36;99942.44;4247334;33;35356;-69
2022/10/09 07:06:42;;;;;;;3.28;2.67;;;;;;;16.88;75.23;99944.72;4246314;33;33512;-72
2022/10/09 07:09:12;;;;;;;2.83;2.30;;;;;;;17.27;74.18;99947.16;4246297;33;34852;-73
2022/10/09 07:11:45;;;;;;;1.45;1.35;;;;;;;17.48;72.63;99952.72;4234408;33;34291;-77
2022/10/09 07:14:14;;;;;;;2.40;2.20;;;;;;;17.64;72.41;99951.34;4234371;33;33090;-79
2022/10/09 07:16:45;;;;;;;5.05;2.60;;;;;;;17.53;72.02;99956.09;4234658;33;33712;-76
2022/10/09 07:19:14;;;;;;;3.70;1.52;;;;;;;18.07;69.67;99957.09;4247039;33;33776;-81
2022/10/09 07:21:44;;;;;;;4.22;2.15;;;;;;;18.40;67.55;99951.66;4234197;33;35185;-73
2022/10/09 07:24:13;;;;;;;1.52;1.37;;;;;;;18.45;68.07;99957.63;4234570;33;33788;-81
2022/10/09 07:26:43;;;;;;;3.33;2.17;;;;;;;18.52;67.51;99954.72;4247234;33;33620;-73
2022/10/09 07:29:13;;;;;;;2.12;1.98;;;;;;;18.96;65.79;99954.16;4234471;33;34273;-75
2022/10/09 07:31:41;;;;;;;5.82;3.25;;;;;;;18.99;65.35;99959.31;4234540;33;34163;-73
2022/10/09 07:34:09;;;;;;;2.10;1.77;;;;;;;19.25;63.98;99960.16;4234201;33;33632;-81
2022/10/09 07:36:37;;;;;;;0.95;0.95;;;;;;;19.07;63.71;99962.53;4234389;33;33650;-82
2022/10/09 07:39:05;;;;;;;2.33;1.70;;;;;;;19.26;63.84;99967.16;4246824;33;33984;-81
2022/10/09 07:41:33;;;;;;;4.75;4.25;;;;;;;19.58;62.35;99962.47;4246889;33;36098;-86
2022/10/09 07:44:01;;;;;;;2.33;2.12;;;;;;;20.07;60.43;99965.88;4234184;33;35237;-83
2022/10/09 07:46:29;;;;;;;2.65;2.45;;;;;;;19.89;60.15;99963.03;4234366;33;33641;-72
2022/10/09 07:49:01;;;;;;;3.28;2.37;;;;;;;19.83;61.01;99967.69;4247053;33;33859;-85
2022/10/09 07:51:31;;;;;;;1.33;1.23;;;;;;;20.16;60.82;99970.78;4245538;33;35093;-83
2022/10/09 07:54:00;;;;;;;4.10;1.87;;;;;;;20.93;57.85;99969.38;4234201;33;34451;-83
2022/10/09 07:56:34;;;;;;;1.90;1.73;;;;;;;21.00;56.69;99966.44;4241134;33;33533;-81
2022/10/09 07:59:20;;;;;;;3.55;2.70;;;;;;;21.22;56.63;99970.75;4234381;33;33978;-86
2022/10/09 08:01:48;;;;;;;1.70;1.60;;;;;;;21.08;57.25;99965.22;4246108;33;35041;-76
2022/10/09 08:04:16;;;;;;;3.00;2.40;;;;;;;21.42;56.44;99969.00;4247809;33;34608;-74
2022/10/09 08:06:44;;;;;;;2.87;2.08;;;;;;;21.45;56.23;99974.16;4248387;33;33786;-85
2022/10/09 08:09:12;;;;;;;2.60;2.37;;;;;;;21.42;56.80;99969.84;4248466;33;34018;-85
2022/10/09 08:11:43;;;;;;;3.17;1.95;;;;;;;22.08;56.06;99977.41;4248255;33;35092;-72
2022/10/09 08:14:12;;;;;;;2.40;1.85;;;;;;;21.95;54.66;99985.09;4248367;33;34650;-72
2022/10/09 08:16:46;;;;;;;0.95;0.95;;;;;;;21.87;54.65;99981.94;4236348;33;31875;-74
2022/10/09 08:19:14;;;;;;;1.77;1.52;;;;;;;21.98;54.74;99976.13;4235555;33;34731;-84
2022/10/09 08:21:42;;;;;;;1.45;1.35;;;;;;;22.30;53.50;99969.28;4248237;33;35163;-82
2022/10/09 08:24:12;;;;;;;3.22;1.25;;;;;;;21.81;53.37;99960.16;4235474;33;34701;-72
2022/10/09 08:26:39;;;;;;;1.45;1.35;;;;;;;22.27;52.67;99961.50;4248306;33;33654;-82
2022/10/09 08:29:09;;;;;;;2.22;2.03;;;;;;;22.52;53.67;99969.09;4235862;33;34985;-81
2022/10/09 08:31:38;;;;;;;3.70;2.72;;;;;;;22.68;53.30;99979.78;4235786;33;34400;-74
2022/10/09 08:34:05;;;;;;;1.30;1.10;;;;;;;22.93;52.82;99975.03;4235285;33;32946;-84
2022/10/09 08:36:34;;;;;;;3.03;1.65;;;;;;;22.53;52.00;99970.78;4235506;33;32793;-76
2022/10/09 08:39:03;;;;;;;0.70;0.70;;;;;;;22.91;53.05;99977.78;4248268;33;34157;-74
2022/10/09 08:41:44;;;;;;;8.27;2.78;;;;;;;23.00;51.26;99974.62;4246859;33;35904;-74
2022/10/09 08:44:15;;;;;;;0.93;0.90;;;;;;;23.08;50.85;99982.22;4234650;33;34295;-77
2022/10/09 08:47:01;;;;;;;1.20;1.10;;;;;;;23.03;49.68;99985.09;4247887;33;33771;-77
2022/10/09 08:49:51;;;;;;;1.25;1.15;;;;;;;23.02;50.80;99980.72;4247054;33;34498;-82
2022/10/09 08:52:40;;;;;;;2.25;2.05;;;;;;;23.79;48.15;99975.75;4248098;33;35921;-79
2022/10/09 08:55:20;;;;;;;1.73;1.62;;;;;;;23.50;48.44;99986.19;4247997;33;34700;-82
2022/10/09 08:57:50;;;;;;;1.35;1.25;;;;;;;24.15;46.67;99988.00;4247338;33;34447;-78
2022/10/09 09:00:21;;;;;;;0.85;0.70;;;;;;;24.29;48.37;99996.03;4235263;33;33955;-80
2022/10/09 09:03:16;;;;;;;1.00;0.95;;;;;;;24.55;46.42;99996.38;4247963;33;34417;-82
2022/10/09 09:05:52;;;;;;;1.33;1.23;;;;;;;25.07;45.49;99995.06;4235407;33;35253;-78
2022/10/09 09:08:52;;;;;;;1.15;1.02;;;;;;;24.94;45.27;99997.62;4235467;33;34470;-82
2022/10/09 09:11:33;;;;;;;0.95;0.95;;;;;;;25.28;45.11;99998.28;4234292;33;33917;-82
2022/10/09 09:14:07;;;;;;;1.75;0.73;;;;;;;25.59;43.44;100002.56;4246105;33;35161;-82
2022/10/09 09:16:40;;;;;;;0.70;0.70;;;;;;;25.42;43.36;99994.75;4247723;33;34604;-82
2022/10/09 09:19:45;;;;;;;1.30;1.15;;;;;;;25.99;42.49;99999.19;4247694;33;33612;-77
2022/10/09 09:22:15;;;;;;;0.70;0.70;;;;;;;26.24;44.19;100007.34;4235122;33;34754;-81
2022/10/09 09:24:46;;;;;;;1.20;1.10;;;;;;;26.42;39.64;100001.72;4234966;33;34995;-83
2022/10/09 09:27:28;;;;;;;1.25;1.10;;;;;;;26.62;40.56;100011.13;4247920;33;34512;-83
2022/10/09 09:30:11;;;;;;;1.08;1.02;;;;;;;26.29;41.84;100015.91;4235322;33;33531;-80
2022/10/09 09:32:51;;;;;;;0.57;0.57;;;;;;;26.77;38.71;100007.44;4247759;33;33976;-83
2022/10/09 09:35:36;;;;;;;1.42;1.20;;;;;;;26.61;39.95;100007.59;4234888;33;35050;-81
2022/10/09 09:38:04;;;;;;;0.75;0.73;;;;;;;26.65;41.73;100009.09;4223484;33;32847;-81
2022/10/09 09:40:33;;;;;;;0.88;0.82;;;;;;;27.01;40.40;100014.72;4234848;33;33078;-75
2022/10/09 09:43:12;;;;;;;0.77;0.65;;;;;;;27.16;40.38;100018.16;4247641;33;33821;-79
2022/10/09 09:45:42;;;;;;;0.70;0.70;;;;;;;27.39;38.31;100014.78;4235148;33;35967;-80
2022/10/09 09:48:37;;;;;;;0.75;0.75;;;;;;;26.74;39.75;100012.12;4247856;33;33791;-77
2022/10/09 09:51:06;;;;;;;1.12;1.05;;;;;;;27.01;37.75;100018.25;4247797;33;33529;-82
2022/10/09 09:54:06;;;;;;;0.75;0.73;;;;;;;27.34;38.07;100016.91;4236779;33;34114;-80
2022/10/09 09:56:39;;;;;;;0.93;0.93;;;;;;;26.89;38.05;100016.41;4247742;33;35057;-81
2022/10/09 09:59:39;;;;;;;0.32;0.32;;;;;;;27.11;38.19;100014.94;4247760;33;35183;-82
2022/10/09 10:02:18;;;;;;;0.85;0.82;;;;;;;26.93;38.65;100017.94;4234873;33;33709;-73
2022/10/09 10:04:57;;;;;;;1.42;1.00;;;;;;;26.98;38.61;100021.13;4223429;33;34072;-83
2022/10/09 10:07:34;;;;;;;2.03;1.87;;;;;;;26.89;39.50;100024.44;4234958;33;35168;-82
2022/10/09 10:10:21;;;;;;;1.25;1.15;;;;;;;27.13;37.50;100016.56;4247596;33;34681;-82
2022/10/09 10:12:52;;;;;;;1.58;1.33;;;;;;;26.78;39.19;100016.31;4223362;33;33167;-85
2022/10/09 10:15:29;;;;;;;0.32;0.32;;;;;;;27.31;36.91;100025.16;4234830;33;33742;-82
2022/10/09 10:18:20;;;;;;;1.35;1.25;;;;;;;26.86;38.20;100019.31;4223407;33;34715;-87
2022/10/09 10:20:56;;;;;;;2.10;0.98;;;;;;;26.84;37.87;100019.41;4247465;33;35266;-82
2022/10/09 10:23:28;;;;;;;;;;;;;;;26.80;38.29;100025.91;4248057;33;34345;-84
2022/10/09 10:25:58;;;;;;;1.30;1.02;;;;;;;26.89;37.80;100027.09;4234823;33;34279;-81
2022/10/09 10:28:35;;;;;;;0.60;0.57;;;;;;;27.09;37.89;100022.22;4235025;33;35142;-84
2022/10/09 10:31:05;;;;;;;0.40;0.40;;;;;;;26.92;37.67;100024.22;4234843;33;34356;-87
2022/10/09 10:33:35;;;;;;;0.80;0.80;;;;;;;26.41;38.07;100026.72;4234876;33;33788;-82
2022/10/09 10:36:03;;;;;;;1.10;1.10;;;;;;;26.08;39.05;100026.16;4246998;33;34759;-81
2022/10/09 10:38:37;;;;;;;0.60;0.60;;;;;;;26.48;37.73;100028.03;4247443;33;35537;-85
2022/10/09 10:41:21;;;;;;;1.37;1.27;;;;;;;26.27;38.63;100025.81;4234483;33;34497;-81
2022/10/09 10:43:55;;;;;;;2.67;1.35;;;;;;;25.87;39.10;100024.81;4234464;33;33870;-77
2022/10/09 10:46:28;;;;;;;4.12;1.42;;;;;;;25.12;40.04;100020.50;4247337;33;34860;-90
2022/10/09 10:48:58;;;;;;;1.45;0.98;;;;;;;24.66;41.59;100031.22;4247707;33;35786;-91
2022/10/09 10:51:29;;;;;;;1.85;1.33;;;;;;;24.59;40.57;100027.19;4234712;33;35276;-84
2022/10/09 10:54:32;;;;;;;1.67;0.95;;;;;;;24.53;41.25;100028.41;4247364;33;34497;-86
2022/10/09 10:57:37;;;;;;;0.35;0.35;;;;;;;24.73;40.50;100019.25;4247688;33;34665;-76
2022/10/09 11:00:07;;;;;;;0.88;0.85;;;;;;;23.85;41.48;100016.22;4247374;33;35935;-89
2022/10/09 11:02:56;;;;;;;0.50;0.50;;;;;;;23.88;41.53;100017.84;4234231;33;36666;-82
2022/10/09 11:05:46;;;;;;;0.50;0.50;;;;;;;24.96;40.44;100006.37;4247320;33;34601;-89
2022/10/09 11:08:38;;;;;;;0.40;0.40;;;;;;;25.35;39.64;100007.59;4247454;33;33893;-77
2022/10/09 11:11:27;;;;;;;0.50;0.50;;;;;;;25.93;38.63;100011.09;4247443;33;35970;-75
2022/10/09 11:14:21;;;;;;;0.68;0.68;;;;;;;26.26;37.60;100007.22;4222946;33;34590;-90
2022/10/09 11:17:08;;;;;;;0.40;0.40;;;;;;;26.34;39.28;100006.72;4247514;33;34564;-88
2022/10/09 11:20:13;;;;;;;0.68;0.60;;;;;;;26.78;36.51;100000.25;4234601;33;33940;-91
2022/10/09 11:23:03;;;;;;;2.42;1.23;;;;;;;26.95;36.93;100010.66;4247095;33;35023;-85
2022/10/09 11:25:49;;;;;;;0.50;0.50;;;;;;;26.46;38.18;100008.59;4247044;33;34521;-76
2022/10/09 11:28:18;;;;;;;;;;;;;;;25.56;37.29;100000.09;4247404;33;33376;-75
2022/10/09 11:30:52;;;;;;;0.35;0.35;;;;;;;25.59;38.00;99997.25;4247072;33;34211;-77
2022/10/09 11:33:43;;;;;;;0.22;0.22;;;;;;;25.44;38.01;99995.53;4234302;33;35164;-73
2022/10/09 11:36:21;;;;;;;0.22;0.22;;;;;;;25.00;38.20;99999.06;4225598;33;34560;-73
2022/10/09 11:38:59;;;;;;;2.33;1.77;;;;;;;24.42;39.75;99999.72;4231506;33;34530;-77
2022/10/09 11:41:28;;;;;;;0.50;0.50;;;;;;;24.13;41.11;99998.72;4231390;33;34150;-85
2022/10/09 11:44:15;;;;;;;0.77;0.70;;;;;;;24.46;41.02;100003.06;4220537;33;36013;-87
2022/10/09 11:47:09;;;;;;;0.30;0.30;;;;;;;24.54;40.08;99990.19;4220377;33;35276;-88
2022/10/09 11:49:50;;;;;;;0.35;0.35;;;;;;;24.69;41.27;100001.75;4219790;33;33320;-74
2022/10/09 11:52:26;;;;;;;0.95;0.73;;;;;;;24.99;39.58;99990.22;4232117;33;33638;-84
2022/10/09 11:54:54;;;;;;;0.40;0.40;;;;;;;25.49;38.27;99991.59;4220108;33;34894;-81
2022/10/09 11:57:27;;;;;;;0.30;0.30;;;;;;;25.53;39.40;99994.94;4219876;33;34835;-82
2022/10/09 12:00:07;;;;;;;0.32;0.32;;;;;;;25.35;39.08;99983.63;4232609;33;33782;-88